Time;durP1;ratioP1;P1;durP2;ratioP2;P2;SDS_P1;SDS_P2;PMS_P1;PMS_P2;Temp;Humidity;BMP_temperature;BMP_pressure;BME280_temperature;BME280_humidity;BME280_pressure;Samples;Min_cycle;Max_cycle;Signal;HPM_P1;HPM_P2
2024/03/07 00:03:53;;;;;;;27.30;17.30;;;;;;;4.96;73.74;101479.53;10359285;28;20358;-82
2024/03/07 00:08:56;;;;;;;30.70;17.33;;;;;;;4.91;73.29;101470.00;10340008;28;20038;-79
2024/03/07 00:13:59;;;;;;;27.05;16.35;;;;;;;4.88;73.36;101462.13;10337571;28;20056;-80
2024/03/07 00:19:04;;;;;;;27.60;17.23;;;;;;;4.84;73.19;101472.91;10336556;28;20046;-80
2024/03/07 00:24:07;;;;;;;28.92;16.05;;;;;;;4.68;72.79;101477.09;10338688;28;20108;-78
2024/03/07 00:29:10;;;;;;;27.75;17.00;;;;;;;4.58;73.68;101475.72;10348395;28;20182;-80
2024/03/07 00:34:16;;;;;;;28.58;17.10;;;;;;;4.52;73.88;101483.94;10367580;28;20051;-81
2024/03/07 00:39:27;;;;;;;30.73;17.35;;;;;;;4.42;73.94;101490.56;10359656;28;20409;-79
2024/03/07 00:44:31;;;;;;;29.55;18.10;;;;;;;4.31;74.55;101488.31;10349262;28;20089;-80
2024/03/07 00:49:36;;;;;;;30.00;17.85;;;;;;;4.23;74.59;101471.75;10346141;28;20085;-79
2024/03/07 00:54:39;;;;;;;31.58;17.92;;;;;;;4.13;74.71;101480.06;10343642;28;20046;-81
2024/03/07 00:59:42;;;;;;;28.08;17.02;;;;;;;4.09;75.28;101480.25;10347936;28;20045;-79
2024/03/07 01:04:47;;;;;;;31.30;18.80;;;;;;;3.94;74.88;101481.66;10348790;28;20568;-80
2024/03/07 01:09:51;;;;;;;30.40;18.90;;;;;;;3.83;75.32;101468.75;10356506;28;20117;-80
2024/03/07 01:14:54;;;;;;;32.90;18.85;;;;;;;3.69;75.04;101469.22;10354739;28;20050;-77
2024/03/07 01:26:45;;;;;;;31.92;19.40;;;;;;;3.52;75.70;101460.13;10358685;28;20042;-81
2024/03/07 01:31:49;;;;;;;34.88;21.92;;;;;;;3.50;76.24;101457.50;10339161;28;20057;-78
2024/03/07 01:36:52;;;;;;;36.90;20.73;;;;;;;3.50;76.21;101457.50;10340439;28;20046;-79
2024/03/07 01:41:56;;;;;;;33.70;20.65;;;;;;;3.50;76.54;101454.84;10361400;28;20056;-78
2024/03/07 01:47:03;;;;;;;42.15;22.05;;;;;;;3.51;76.63;101451.25;10355411;28;20050;-79
2024/03/07 01:52:07;;;;;;;34.33;20.48;;;;;;;3.54;76.78;101440.56;10371928;28;20072;-80
2024/03/07 01:57:13;;;;;;;40.75;22.05;;;;;;;3.51;76.75;101443.28;10358083;28;20493;-79
2024/03/07 02:02:16;;;;;;;39.83;22.48;;;;;;;3.43;76.50;101445.38;10376521;28;20456;-81
2024/03/07 02:07:19;;;;;;;34.58;19.52;;;;;;;3.34;76.59;101440.38;10366752;28;20057;-79
2024/03/07 02:12:24;;;;;;;33.25;20.20;;;;;;;3.21;77.18;101439.91;10375394;28;20057;-80
2024/03/07 02:17:27;;;;;;;31.75;20.15;;;;;;;3.14;77.75;101427.75;10342343;28;20034;-77
2024/03/07 02:22:32;;;;;;;37.83;20.52;;;;;;;3.01;77.90;101429.94;10344211;28;20057;-78
2024/03/07 02:27:35;;;;;;;34.42;20.00;;;;;;;2.96;78.23;101427.47;10340034;28;20047;-78
2024/03/07 02:32:38;;;;;;;36.72;20.63;;;;;;;2.90;78.56;101427.63;10340358;28;20677;-77
2024/03/07 02:37:42;;;;;;;33.70;20.48;;;;;;;2.80;78.53;101419.13;10338683;28;20049;-79
2024/03/07 02:42:45;;;;;;;38.58;22.15;;;;;;;2.78;79.15;101410.34;10355177;28;20080;-79
2024/03/07 02:47:48;;;;;;;37.20;20.42;;;;;;;2.65;79.21;101409.00;10375625;28;20046;-79
2024/03/07 02:52:53;;;;;;;37.13;20.83;;;;;;;2.64;79.71;101412.56;10350262;28;20101;-79
2024/03/07 02:57:57;;;;;;;39.50;22.13;;;;;;;2.65;79.99;101408.13;10354879;28;20045;-79
2024/03/07 03:03:00;;;;;;;37.17;20.95;;;;;;;2.67;79.99;101411.59;10372737;28;20772;-77
2024/03/07 03:08:06;;;;;;;36.63;20.35;;;;;;;2.62;79.96;101419.69;10368478;28;20057;-79
2024/03/07 03:13:10;;;;;;;38.10;21.35;;;;;;;2.62;80.43;101422.34;10366419;28;20489;-77
2024/03/07 03:18:13;;;;;;;35.42;21.10;;;;;;;2.63;80.80;101415.25;10355052;28;20054;-78
2024/03/07 03:23:18;;;;;;;34.47;20.55;;;;;;;2.55;81.38;101407.53;10365872;28;20091;-78
2024/03/07 03:28:24;;;;;;;37.00;20.63;;;;;;;2.46;81.17;101413.09;10371154;28;20050;-79
2024/03/07 03:33:27;;;;;;;36.15;20.63;;;;;;;2.42;81.31;101417.63;10340643;28;20050;-79
2024/03/07 03:38:32;;;;;;;39.67;22.08;;;;;;;2.38;81.07;101408.88;10337860;28;20085;-79
2024/03/07 03:43:35;;;;;;;40.13;22.52;;;;;;;2.40;81.24;101412.38;10335240;28;20145;-77
2024/03/07 03:48:39;;;;;;;37.25;21.70;;;;;;;2.32;81.19;101400.25;10336119;28;20113;-78
2024/03/07 03:53:44;;;;;;;39.22;21.17;;;;;;;2.26;81.12;101403.13;10336334;28;20046;-80
2024/03/07 03:58:47;;;;;;;34.70;21.45;;;;;;;2.24;81.15;101411.09;10355529;28;20042;-79
2024/03/07 04:03:50;;;;;;;36.17;21.27;;;;;;;2.25;81.34;101406.66;10367755;28;20042;-79
2024/03/07 04:08:55;;;;;;;36.63;21.35;;;;;;;2.17;81.20;101394.53;10362053;28;20069;-80
2024/03/07 04:13:58;;;;;;;37.22;22.50;;;;;;;2.06;81.59;101390.47;10337829;28;20034;-80
2024/03/07 04:19:01;;;;;;;35.67;20.63;;;;;;;1.86;81.43;101391.88;10337180;28;20053;-79
2024/03/07 04:24:06;;;;;;;37.47;21.45;;;;;;;1.82;82.30;101398.19;10365026;28;20084;-79
2024/03/07 04:29:09;;;;;;;39.58;22.00;;;;;;;1.87;82.35;101396.28;10400928;28;20046;-77
2024/03/07 04:34:12;;;;;;;39.03;22.48;;;;;;;1.95;82.93;101386.34;10386602;28;20125;-81
2024/03/07 04:39:24;;;;;;;39.05;22.75;;;;;;;2.20;83.53;101398.88;10339951;28;20051;-80
2024/03/07 04:44:27;;;;;;;36.85;22.35;;;;;;;2.40;82.72;101392.94;10353526;28;20050;-78
2024/03/07 04:49:32;;;;;;;40.90;22.92;;;;;;;2.45;82.48;101392.81;10398280;28;20042;-77
2024/03/07 04:54:37;;;;;;;35.72;22.30;;;;;;;2.61;82.32;101392.31;10391676;28;20089;-80
2024/03/07 04:59:40;;;;;;;44.63;23.15;;;;;;;2.78;81.61;101390.91;10376796;28;20420;-79
2024/03/07 05:04:44;;;;;;;35.92;21.77;;;;;;;2.65;80.99;101398.38;10351007;28;20058;-80
2024/03/07 05:09:48;;;;;;;35.78;20.88;;;;;;;2.31;83.66;101395.88;10361840;28;20042;-78
2024/03/07 05:14:51;;;;;;;36.03;21.88;;;;;;;2.30;82.71;101402.09;10364288;28;20054;-79
2024/03/07 05:19:54;;;;;;;38.58;21.20;;;;;;;2.41;83.92;101394.66;10366718;28;20104;-81
2024/03/07 05:24:59;;;;;;;39.80;22.30;;;;;;;2.09;85.98;101404.47;10365439;28;20129;-81
2024/03/07 05:30:03;;;;;;;41.22;23.33;;;;;;;2.08;88.04;101412.47;10388751;28;20042;-78
2024/03/07 05:35:10;;;;;;;43.45;23.60;;;;;;;1.89;89.96;101412.13;10367636;28;20053;-81
2024/03/07 05:40:15;;;;;;;44.03;23.73;;;;;;;2.12;89.20;101419.44;10390764;28;20050;-79
2024/03/07 05:45:18;;;;;;;43.92;24.83;;;;;;;2.24;87.72;101420.84;10379177;28;20139;-79
2024/03/07 05:50:22;;;;;;;51.47;24.27;;;;;;;2.54;87.98;101414.63;10368530;28;20054;-79
2024/03/07 05:55:26;;;;;;;47.70;25.73;;;;;;;2.67;86.92;101412.47;10371696;28;20110;-82
2024/03/07 06:00:29;;;;;;;47.10;26.17;;;;;;;2.73;86.82;101409.63;10362709;28;20133;-81
2024/03/07 06:05:32;;;;;;;42.63;24.98;;;;;;;2.74;85.61;101407.81;10370908;28;20069;-82
2024/03/07 06:10:39;;;;;;;44.95;24.85;;;;;;;2.81;85.87;101414.69;10366539;28;20124;-79
2024/03/07 06:15:45;;;;;;;46.28;25.88;;;;;;;2.91;85.74;101410.81;10360611;28;20054;-81
2024/03/07 06:20:48;;;;;;;44.30;25.08;;;;;;;3.09;85.23;101405.81;10357810;28;20066;-80
2024/03/07 06:25:54;;;;;;;47.30;25.30;;;;;;;3.21;84.70;101423.97;10374379;28;20614;-82
2024/03/07 06:30:57;;;;;;;49.45;25.08;;;;;;;3.31;84.08;101420.09;10344619;28;20502;-79
2024/03/07 06:36:00;;;;;;;40.97;23.58;;;;;;;3.36;83.36;101419.94;10361346;28;20042;-80
2024/03/07 06:41:05;;;;;;;44.70;24.60;;;;;;;3.34;82.65;101427.09;10358701;28;20078;-80
2024/03/07 06:46:09;;;;;;;43.67;24.40;;;;;;;3.20;82.81;101431.06;10357386;28;20042;-80
2024/03/07 06:51:12;;;;;;;40.55;24.88;;;;;;;3.20;83.59;101427.56;10341663;28;20054;-79
2024/03/07 06:56:18;;;;;;;42.90;24.55;;;;;;;3.23;83.92;101423.00;10373674;28;20111;-81
2024/03/07 07:01:22;;;;;;;46.83;25.27;;;;;;;3.50;84.25;101425.63;10360648;28;20042;-80
2024/03/07 07:06:26;;;;;;;42.42;23.88;;;;;;;3.49;82.66;101406.16;10348952;28;20766;-82
2024/03/07 07:11:30;;;;;;;44.58;25.10;;;;;;;3.25;84.43;101399.06;10359012;28;20053;-79
2024/03/07 07:16:41;;;;;;;39.92;23.38;;;;;;;3.35;84.68;101410.25;10367881;28;20072;-79
2024/03/07 07:21:44;;;;;;;55.45;28.48;;;;;;;3.77;86.41;101397.22;10380312;28;20584;-81
2024/03/07 07:26:49;;;;;;;61.30;29.42;;;;;;;4.37;85.51;101421.56;10346257;28;20552;-79
2024/03/07 07:31:52;;;;;;;45.75;26.15;;;;;;;4.71;82.69;101429.06;10362766;28;20646;-78
2024/03/07 07:36:55;;;;;;;34.50;18.05;;;;;;;5.06;81.86;101434.78;10358098;28;20168;-78
2024/03/07 07:42:00;;;;;;;41.42;18.80;;;;;;;5.24;78.41;101427.84;10340966;28;21041;-81
2024/03/07 07:47:03;;;;;;;32.55;20.23;;;;;;;4.98;77.15;101428.88;10320102;28;20339;-80
2024/03/07 07:52:08;;;;;;;30.98;19.38;;;;;;;4.77;77.97;101428.84;10316087;28;20055;-79
2024/03/07 07:57:13;;;;;;;34.78;19.63;;;;;;;4.59;78.81;101425.09;10326701;28;20634;-79
2024/03/07 08:02:16;;;;;;;37.67;21.05;;;;;;;4.58;80.46;101417.16;10338768;28;20428;-78
2024/03/07 08:07:19;;;;;;;39.90;22.23;;;;;;;4.73;80.52;101416.56;10324520;28;20052;-80
2024/03/07 08:12:24;;;;;;;36.65;21.10;;;;;;;4.86;80.72;101408.97;10327084;28;20070;-80
2024/03/07 08:17:27;;;;;;;42.05;21.73;;;;;;;4.98;80.65;101405.78;10366915;28;20062;-78
2024/03/07 08:22:31;;;;;;;41.33;23.85;;;;;;;5.08;80.98;101408.13;10345350;28;20045;-80
2024/03/07 08:27:35;;;;;;;43.30;22.90;;;;;;;5.12;80.96;101404.38;10334255;28;20084;-82
2024/03/07 08:32:38;;;;;;;51.38;25.27;;;;;;;5.01;80.80;101410.16;10311941;28;20046;-80
2024/03/07 08:37:42;;;;;;;48.20;24.85;;;;;;;4.94;81.83;101408.66;10317574;28;20056;-80
2024/03/07 08:42:48;;;;;;;56.75;28.25;;;;;;;4.74;83.41;101412.97;10328819;28;21166;-80
2024/03/07 08:47:54;;;;;;;56.60;27.67;;;;;;;4.72;84.13;101400.69;10311648;28;20038;-79
2024/03/07 08:52:57;;;;;;;54.60;26.75;;;;;;;4.84;83.75;101400.16;10315379;28;20046;-80
2024/03/07 08:58:01;;;;;;;56.53;25.80;;;;;;;4.71;83.30;101399.78;10314145;28;20050;-80
2024/03/07 09:03:09;;;;;;;56.38;26.38;;;;;;;4.77;84.60;101401.31;10312189;28;20421;-78
2024/03/07 09:08:13;;;;;;;59.63;27.27;;;;;;;4.86;83.95;101398.31;10301061;28;20050;-81
2024/03/07 09:13:18;;;;;;;60.35;27.38;;;;;;;4.94;83.70;101392.69;10298085;28;20047;-80
2024/03/07 09:18:21;;;;;;;59.47;27.05;;;;;;;4.97;84.24;101397.88;10307626;28;20054;-81
2024/03/07 09:23:25;;;;;;;61.25;28.30;;;;;;;5.16;84.03;101390.00;10279943;28;20581;-81
2024/03/07 09:28:30;;;;;;;65.55;28.70;;;;;;;5.32;83.12;101388.44;10300431;28;20069;-81
2024/03/07 09:33:34;;;;;;;59.15;29.05;;;;;;;5.46;83.09;101385.16;10316637;28;20052;-81
2024/03/07 09:38:37;;;;;;;54.92;26.70;;;;;;;5.58;81.09;101403.28;10315389;28;20707;-78
2024/03/07 09:43:43;;;;;;;60.72;28.63;;;;;;;5.60;81.49;101397.88;10316342;28;20073;-77
2024/03/07 09:48:47;;;;;;;62.25;27.23;;;;;;;5.48;81.79;101393.94;10324406;28;20073;-79
2024/03/07 09:53:52;;;;;;;62.78;27.85;;;;;;;5.42;82.12;101402.19;10310539;28;20043;-80
2024/03/07 09:58:59;;;;;;;58.47;28.80;;;;;;;5.49;82.31;101401.00;10304298;28;20622;-81
2024/03/07 10:04:11;;;;;;;65.90;29.73;;;;;;;5.44;83.44;101397.69;10290814;28;21613;-81
2024/03/07 10:09:14;;;;;;;65.45;28.85;;;;;;;5.18;85.07;101402.31;10312273;28;20050;-79
2024/03/07 10:14:18;;;;;;;68.72;28.92;;;;;;;5.13;85.67;101403.44;10304731;28;20046;-78
2024/03/07 10:19:21;;;;;;;71.40;29.10;;;;;;;5.16;85.89;101398.00;10305026;28;20424;-81
2024/03/07 10:24:25;;;;;;;62.42;27.17;;;;;;;5.27;86.09;101403.75;10313841;28;20402;-79
2024/03/07 10:29:30;;;;;;;61.13;27.27;;;;;;;5.22;86.49;101408.41;10281202;28;20058;-80
2024/03/07 10:34:35;;;;;;;68.40;27.90;;;;;;;5.63;86.83;101393.28;10307954;28;20058;-80
2024/03/07 10:39:37;;;;;;;64.22;27.83;;;;;;;5.82;84.68;101393.31;10310834;28;20061;-81
2024/03/07 10:44:45;;;;;;;69.22;29.48;;;;;;;5.93;83.92;101387.50;10306339;28;20436;-80
2024/03/07 10:50:00;;;;;;;61.38;29.30;;;;;;;6.09;83.69;101387.66;10305640;28;20050;-79
2024/03/07 10:55:16;;;;;;;64.53;29.20;;;;;;;6.32;82.72;101381.25;10297174;28;20073;-79
2024/03/07 11:00:35;;;;;;;67.55;27.20;;;;;;;6.78;81.54;101379.88;10281584;28;20050;-80
2024/03/07 11:05:42;;;;;;;58.55;26.58;;;;;;;7.14;79.03;101375.47;10305429;28;20038;-79
2024/03/07 11:10:47;;;;;;;54.60;24.48;;;;;;;7.00;78.43;101377.03;10329628;28;20054;-78
2024/03/07 11:15:57;;;;;;;60.35;24.58;;;;;;;6.76;79.10;101367.53;10334342;28;20046;-80
2024/03/07 11:21:00;;;;;;;56.63;25.52;;;;;;;6.93;79.22;101359.56;10320172;28;20042;-80
2024/03/07 11:26:10;;;;;;;60.60;27.42;;;;;;;8.44;74.90;101349.72;10320837;28;20574;-78
2024/03/07 11:31:16;;;;;;;52.00;23.27;;;;;;;9.79;66.99;101354.25;10303141;28;20053;-79
2024/03/07 11:36:43;;;;;;;46.88;23.70;;;;;;;8.64;67.27;101348.63;10354086;28;20084;-78
2024/03/07 11:41:48;;;;;;;47.08;22.30;;;;;;;7.68;71.54;101354.84;10334720;28;20050;-78
2024/03/07 11:46:52;;;;;;;47.33;22.85;;;;;;;7.03;75.17;101350.16;10328579;28;20050;-78
2024/03/07 11:51:55;;;;;;;54.70;25.08;;;;;;;6.98;76.38;101337.97;10327207;28;21579;-79
2024/03/07 11:57:00;;;;;;;50.90;23.13;;;;;;;7.18;75.99;101326.25;10320511;28;20117;-77
2024/03/07 12:02:05;;;;;;;50.92;23.33;;;;;;;7.15;75.88;101316.59;10324176;28;20064;-79
2024/03/07 12:07:10;;;;;;;50.35;23.83;;;;;;;7.48;74.70;101313.94;10321261;28;20058;-78
2024/03/07 12:12:13;;;;;;;46.95;23.63;;;;;;;8.96;73.59;101292.28;10329919;28;20058;-80
2024/03/07 12:17:18;;;;;;;47.65;23.15;;;;;;;9.17;65.82;101287.44;10343823;28;20111;-81
2024/03/07 12:22:23;;;;;;;54.92;25.63;;;;;;;8.57;66.24;101267.75;10330792;28;20168;-80
2024/03/07 12:27:29;;;;;;;57.25;25.95;;;;;;;8.13;69.03;101267.63;10324059;28;20045;-79
2024/03/07 12:32:34;;;;;;;49.05;25.15;;;;;;;10.38;59.40;101247.56;10325558;28;20084;-77
2024/03/07 12:37:37;;;;;;;49.72;24.58;;;;;;;11.68;53.68;101243.06;10321956;28;20077;-80
2024/03/07 12:42:43;;;;;;;44.50;24.10;;;;;;;12.25;50.59;101236.19;10319498;28;20046;-80
2024/03/07 12:47:50;;;;;;;49.72;23.90;;;;;;;10.82;54.43;101239.16;10338318;28;20053;-79
2024/03/07 12:52:55;;;;;;;46.08;23.40;;;;;;;10.14;57.35;101232.09;10322136;28;20126;-79
2024/03/07 12:57:58;;;;;;;56.13;23.83;;;;;;;9.11;60.23;101227.03;10306199;28;20126;-81
2024/03/07 13:03:03;;;;;;;52.92;26.15;;;;;;;8.78;63.64;101225.44;10330978;28;20402;-80
2024/03/07 13:08:08;;;;;;;55.40;25.67;;;;;;;9.18;63.15;101219.47;10315371;28;20053;-80
2024/03/07 13:13:12;;;;;;;52.90;23.60;;;;;;;9.41;61.56;101218.91;10300172;28;20046;-80
2024/03/07 13:18:16;;;;;;;50.92;23.40;;;;;;;10.63;57.98;101214.53;10315759;28;20049;-80
2024/03/07 13:23:19;;;;;;;49.65;23.13;;;;;;;9.94;58.33;101211.06;10317269;28;20059;-80
2024/03/07 13:28:24;;;;;;;47.78;23.67;;;;;;;9.23;61.24;101220.91;10325873;28;21075;-80
2024/03/07 13:33:29;;;;;;;51.33;23.40;;;;;;;8.88;62.87;101212.34;10333117;28;20054;-79
2024/03/07 13:38:33;;;;;;;55.80;23.88;;;;;;;11.93;57.88;101196.38;10342839;28;21146;-80
2024/03/07 13:43:37;;;;;;;47.63;22.90;;;;;;;14.49;47.93;101188.75;10346681;28;20089;-79
2024/03/07 13:48:43;;;;;;;41.55;22.50;;;;;;;14.87;46.49;101181.91;10348335;28;20046;-78
2024/03/07 13:53:50;;;;;;;46.65;23.33;;;;;;;12.43;49.62;101180.97;10331624;28;20043;-78
2024/03/07 13:59:15;;;;;;;45.67;22.08;;;;;;;10.63;54.96;101184.13;10322994;28;20510;-77
2024/03/07 14:04:46;;;;;;;52.63;24.42;;;;;;;9.49;60.24;101184.41;10316264;28;20594;-79
2024/03/07 14:10:21;;;;;;;48.55;22.58;;;;;;;11.14;57.61;101166.22;10329395;28;20050;-79
2024/03/07 14:15:56;;;;;;;44.30;21.80;;;;;;;10.85;55.02;101162.84;10321771;28;20042;-79
2024/03/07 14:21:16;;;;;;;49.33;23.70;;;;;;;10.19;56.71;101158.44;10319275;28;20050;-78
2024/03/07 14:26:51;;;;;;;46.00;23.58;;;;;;;10.90;55.45;101144.56;10316737;28;20260;-79
2024/03/07 14:31:54;;;;;;;48.92;22.95;;;;;;;9.94;56.32;101143.97;10327087;28;20054;-79
2024/03/07 14:37:10;;;;;;;48.45;22.80;;;;;;;9.12;58.91;101142.13;10355040;28;20048;-79
2024/03/07 14:42:15;;;;;;;49.90;23.80;;;;;;;8.42;61.46;101147.25;10378186;28;20057;-78
2024/03/07 14:47:21;;;;;;;47.33;24.08;;;;;;;8.91;60.73;101137.13;10349101;28;20089;-80
2024/03/07 14:52:28;;;;;;;49.58;25.10;;;;;;;9.29;56.77;101129.34;10327794;28;20050;-79
2024/03/07 14:57:32;;;;;;;45.65;22.92;;;;;;;11.10;52.25;101116.25;10359189;28;20081;-78
2024/03/07 15:02:37;;;;;;;44.50;23.27;;;;;;;12.03;48.94;101108.53;10335632;28;20046;-78
2024/03/07 15:07:41;;;;;;;48.75;23.33;;;;;;;10.49;52.00;101118.75;10328009;28;20046;-80
2024/03/07 15:12:46;;;;;;;46.72;22.40;;;;;;;9.77;54.75;101106.66;10327364;28;20050;-80
2024/03/07 15:17:50;;;;;;;44.13;22.92;;;;;;;9.54;54.68;101092.91;10326959;28;20060;-80
2024/03/07 15:22:57;;;;;;;47.72;23.63;;;;;;;9.56;55.14;101093.66;10324047;28;20046;-79
2024/03/07 15:28:01;;;;;;;45.10;22.33;;;;;;;9.28;55.08;101084.75;10319507;28;20152;-79
2024/03/07 15:33:05;;;;;;;40.85;20.08;;;;;;;9.04;52.65;101094.34;10330047;28;20054;-78
2024/03/07 15:38:11;;;;;;;36.95;18.92;;;;;;;8.68;52.07;101084.97;10356115;28;20054;-79
2024/03/07 15:43:14;;;;;;;43.22;21.10;;;;;;;8.60;52.09;101079.25;10340052;28;20054;-79
2024/03/07 15:48:19;;;;;;;37.85;19.85;;;;;;;8.59;51.17;101070.34;10336526;28;20118;-78
2024/03/07 15:53:27;;;;;;;38.25;18.52;;;;;;;9.27;49.05;101076.81;10336516;28;20045;-78
2024/03/07 15:58:30;;;;;;;42.35;19.83;;;;;;;9.05;48.27;101066.59;10350059;28;20054;-79
2024/03/07 16:03:33;;;;;;;37.55;19.63;;;;;;;8.56;48.65;101058.97;10336402;28;20051;-79
2024/03/07 16:08:39;;;;;;;34.25;19.73;;;;;;;7.72;50.05;101076.41;10319005;28;20054;-78
2024/03/07 16:13:43;;;;;;;42.55;21.42;;;;;;;7.34;51.58;101057.22;10327608;28;20057;-79
2024/03/07 16:18:46;;;;;;;41.30;19.05;;;;;;;7.15;52.00;101062.75;10331654;28;20049;-80
2024/03/07 16:23:53;;;;;;;41.38;17.98;;;;;;;7.24;52.02;101056.91;10322917;28;20082;-80
2024/03/07 16:28:56;;;;;;;38.13;18.52;;;;;;;6.99;52.56;101060.09;10314431;28;20749;-79
2024/03/07 16:33:59;;;;;;;39.97;19.27;;;;;;;6.91;52.89;101048.06;10316972;28;20105;-80
2024/03/07 16:39:11;;;;;;;36.72;19.85;;;;;;;7.09;53.06;101052.41;10307774;28;20105;-80
2024/03/07 16:44:14;;;;;;;36.22;20.20;;;;;;;7.04;53.90;101054.47;10325377;28;20050;-79
2024/03/07 16:49:18;;;;;;;43.30;20.48;;;;;;;7.00;54.42;101064.47;10375380;28;20053;-79
2024/03/07 16:54:23;;;;;;;39.20;20.92;;;;;;;6.88;55.23;101067.81;10332984;28;20424;-80
2024/03/07 16:59:26;;;;;;;39.08;20.27;;;;;;;6.71;56.22;101063.34;10306884;28;20056;-81
2024/03/07 17:04:29;;;;;;;41.22;21.05;;;;;;;6.44;57.95;101063.03;10331032;28;20138;-79
2024/03/07 17:09:34;;;;;;;43.42;21.80;;;;;;;6.20;58.68;101062.53;10337784;28;20041;-78
2024/03/07 17:14:43;;;;;;;43.13;21.38;;;;;;;6.02;58.74;101072.31;10363879;28;20048;-78
2024/03/07 17:19:47;;;;;;;45.15;21.77;;;;;;;5.81;59.41;101076.06;10314115;28;20078;-80
2024/03/07 17:24:52;;;;;;;41.85;22.42;;;;;;;5.65;60.00;101075.97;10328389;28;20141;-79
2024/03/07 17:29:56;;;;;;;41.60;22.73;;;;;;;5.52;60.15;101073.06;10314920;28;20053;-80
2024/03/07 17:34:59;;;;;;;40.40;20.33;;;;;;;5.45;60.05;101082.28;10307749;28;20176;-80
2024/03/07 17:40:05;;;;;;;37.45;20.17;;;;;;;5.40;59.62;101066.53;10305973;28;20591;-79
2024/03/07 17:45:11;;;;;;;34.45;19.10;;;;;;;5.34;59.73;101084.59;10330635;28;20046;-80
2024/03/07 17:50:19;;;;;;;38.22;19.15;;;;;;;5.23;59.61;101085.13;10324879;28;20050;-80
2024/03/07 17:55:24;;;;;;;34.22;17.98;;;;;;;5.21;59.58;101079.00;10301537;28;20053;-81
2024/03/07 18:00:27;;;;;;;38.25;18.55;;;;;;;5.18;58.98;101072.00;10329882;28;20046;-81
2024/03/07 18:05:30;;;;;;;31.85;16.33;;;;;;;5.12;58.65;101087.44;10300083;28;20054;-79
2024/03/07 18:10:35;;;;;;;31.65;17.33;;;;;;;5.06;58.37;101084.09;10307238;28;21211;-81
2024/03/07 18:15:39;;;;;;;27.48;16.45;;;;;;;5.07;58.55;101076.97;10300489;28;20045;-82
2024/03/07 18:20:42;;;;;;;32.30;17.70;;;;;;;4.96;58.64;101085.44;10316916;28;20184;-80
2024/03/07 18:25:50;;;;;;;34.65;18.25;;;;;;;4.90;59.20;101077.75;10336456;28;20124;-79
2024/03/07 18:30:58;;;;;;;34.65;19.23;;;;;;;4.80;59.64;101074.66;10306772;28;20061;-80
2024/03/07 18:36:05;;;;;;;35.78;19.25;;;;;;;4.71;60.09;101079.53;10313459;28;20050;-80
2024/03/07 18:41:11;;;;;;;35.92;20.92;;;;;;;4.58;60.70;101081.84;10296436;28;20055;-80
2024/03/07 18:46:16;;;;;;;35.80;19.30;;;;;;;4.48;61.08;101072.59;10326382;28;20058;-80
2024/03/07 18:51:22;;;;;;;34.42;19.10;;;;;;;4.46;61.35;101075.28;10377146;28;20076;-79
2024/03/07 18:56:27;;;;;;;33.15;18.85;;;;;;;4.42;61.42;101081.69;10348266;28;20573;-79
2024/03/07 19:01:31;;;;;;;31.00;17.00;;;;;;;4.36;61.61;101073.97;10309116;28;20138;-80
2024/03/07 19:06:38;;;;;;;28.95;18.45;;;;;;;4.30;61.54;101077.75;10294548;28;20058;-78
2024/03/07 19:11:47;;;;;;;31.50;17.98;;;;;;;4.28;61.51;101073.44;10291214;28;20050;-78
2024/03/07 19:16:52;;;;;;;30.50;17.48;;;;;;;4.29;61.07;101078.72;10299718;28;20526;-79
2024/03/07 19:21:56;;;;;;;28.23;15.77;;;;;;;4.27;60.72;101071.72;10317912;28;20481;-80
2024/03/07 19:27:00;;;;;;;32.17;17.60;;;;;;;4.24;60.64;101070.06;10321091;28;20592;-81
2024/03/07 19:32:04;;;;;;;28.30;15.88;;;;;;;4.29;60.37;101061.91;10311963;28;20078;-81
2024/03/07 19:37:09;;;;;;;23.38;14.85;;;;;;;4.22;60.71;101061.28;10313563;28;20059;-79
2024/03/07 19:42:13;;;;;;;26.25;15.50;;;;;;;4.12;60.75;101060.84;10355500;28;20126;-79
2024/03/07 19:47:16;;;;;;;26.92;15.55;;;;;;;4.05;61.10;101061.16;10323222;28;20058;-79
2024/03/07 19:52:20;;;;;;;28.65;15.65;;;;;;;3.96;61.21;101054.44;10326744;28;20570;-80
2024/03/07 19:57:27;;;;;;;22.23;15.35;;;;;;;3.91;61.03;101059.94;10328131;28;20717;-81
2024/03/07 20:02:33;;;;;;;29.15;16.40;;;;;;;3.90;60.80;101068.88;10334132;28;20115;-79
2024/03/07 20:07:37;;;;;;;27.10;15.68;;;;;;;3.90;60.78;101063.56;10304830;28;20054;-78
2024/03/07 20:12:43;;;;;;;28.88;15.95;;;;;;;3.86;60.33;101056.63;10302547;28;20055;-77
2024/03/07 20:17:48;;;;;;;28.15;15.63;;;;;;;3.79;60.29;101057.81;10335910;28;20050;-78
2024/03/07 20:22:53;;;;;;;30.73;16.35;;;;;;;3.78;60.30;101053.41;10322978;28;20057;-78
2024/03/07 20:27:57;;;;;;;25.52;14.77;;;;;;;3.79;60.00;101054.31;10319265;28;20053;-78
2024/03/07 20:33:01;;;;;;;33.97;16.73;;;;;;;3.78;59.91;101058.72;10318631;28;20050;-77
2024/03/07 20:38:05;;;;;;;32.35;17.08;;;;;;;3.70;60.09;101059.06;10327411;28;20062;-80
2024/03/07 20:43:10;;;;;;;30.85;16.42;;;;;;;3.67;60.11;101061.84;10322054;28;20055;-82
2024/03/07 20:48:14;;;;;;;34.25;17.83;;;;;;;3.58;60.31;101056.91;10326657;28;20141;-81
2024/03/07 20:53:17;;;;;;;26.52;17.65;;;;;;;3.53;60.77;101058.88;10315843;28;20733;-78
2024/03/07 20:58:22;;;;;;;31.98;17.80;;;;;;;3.46;61.02;101050.31;10317634;28;20125;-82
2024/03/07 21:03:27;;;;;;;36.08;16.38;;;;;;;3.37;61.38;101052.47;10338617;28;20049;-79
2024/03/07 21:08:32;;;;;;;29.63;16.13;;;;;;;3.27;61.59;101041.38;10324453;28;20053;-82
2024/03/07 21:13:40;;;;;;;27.85;17.48;;;;;;;3.21;61.67;101037.16;10316646;28;20076;-80
2024/03/07 21:18:43;;;;;;;27.13;15.80;;;;;;;3.21;61.71;101039.81;10320635;28;20064;-80
2024/03/07 21:23:46;;;;;;;26.17;17.15;;;;;;;3.22;61.74;101033.59;10316895;28;20061;-80
2024/03/07 21:28:53;;;;;;;32.38;18.15;;;;;;;3.21;61.93;101034.50;10322733;28;21068;-80
2024/03/07 21:33:57;;;;;;;28.27;17.13;;;;;;;3.10;62.08;101034.09;10337011;28;20054;-80
2024/03/07 21:39:01;;;;;;;30.02;16.88;;;;;;;3.08;62.27;101029.75;10310403;28;20545;-80
2024/03/07 21:44:08;;;;;;;30.52;17.70;;;;;;;3.01;62.48;101029.97;10323270;28;20053;-80
2024/03/07 21:49:11;;;;;;;32.92;17.70;;;;;;;2.96;62.62;101020.47;10310478;28;20068;-81
2024/03/07 21:54:17;;;;;;;31.50;17.52;;;;;;;2.96;62.65;101018.69;10321564;28;20057;-80
2024/03/07 21:59:21;;;;;;;35.13;17.20;;;;;;;3.01;62.61;101019.34;10324583;28;20038;-80
2024/03/07 22:04:25;;;;;;;35.30;20.38;;;;;;;3.00;62.27;101014.13;10310370;28;20081;-78
2024/03/07 22:09:28;;;;;;;31.55;18.05;;;;;;;2.89;62.39;101016.34;10334123;28;20061;-79
2024/03/07 22:14:33;;;;;;;31.88;18.55;;;;;;;2.79;62.66;101021.13;10350603;28;20125;-79
2024/03/07 22:19:38;;;;;;;36.05;19.30;;;;;;;2.70;62.99;101014.38;10331331;28;20049;-82
2024/03/07 22:24:45;;;;;;;30.27;18.73;;;;;;;2.56;63.57;101014.91;10320368;28;20047;-80
2024/03/07 22:29:49;;;;;;;27.55;17.02;;;;;;;2.62;63.78;101003.19;10326053;28;20049;-80
2024/03/07 22:34:53;;;;;;;30.38;18.42;;;;;;;2.59;63.64;101005.97;10310610;28;20545;-79
2024/03/07 22:39:57;;;;;;;30.05;17.67;;;;;;;2.51;64.03;101006.22;10318061;28;20053;-80
2024/03/07 22:45:02;;;;;;;32.33;18.60;;;;;;;2.42;64.72;101000.41;10285282;28;20042;-79
2024/03/07 22:50:07;;;;;;;33.88;18.05;;;;;;;2.33;65.18;100991.88;10297128;28;20060;-78
2024/03/07 22:55:25;;;;;;;29.98;17.65;;;;;;;2.26;65.48;100987.72;10318551;28;20062;-79
2024/03/07 23:00:31;;;;;;;36.90;19.38;;;;;;;2.12;65.88;100977.63;10327404;28;20057;-80
2024/03/07 23:05:35;;;;;;;33.67;18.05;;;;;;;2.07;66.16;100976.91;10304189;28;20046;-80
2024/03/07 23:10:38;;;;;;;32.47;19.65;;;;;;;2.04;66.37;100971.72;10299248;28;20053;-80
2024/03/07 23:15:43;;;;;;;35.38;18.63;;;;;;;2.01;66.75;100968.34;10297230;28;20054;-78